Chestnut, Louisiana
Current Conditions -  °F | °C
As of 2:35 AM on Friday 21 Nov 2014 (Local Time) from KIER Reporting Station
Overcast Overcast  
Wind Chill: 57°   Ceiling: 7500
Heat Index: 57°   Visibility: 10mi
Dew Point: 50°   Wind: 6mph
Humidity: 76%   Direction: 150°SSE
Pressure: 30.18"   Gusts: NA
Location:  32.1401°N, 92.9428°W
Report Text: KIER 210835Z AUTO 15005KT 10SM OVC075 14/10 A3018 RMK AO2 T01410099
Loading
Personal Weather Stations






























Interactive Weather Map New forecast layout! Learn more

10-Day Weather Forecast

Advertisements
Track Severe Weather on mobile